Welcome to Northern Hawkes Bay. New Zealand.
PWS Header
      nz Flag



Hit Counter


W3C Valid W3C Valid logo


    Wairoa

Select any of the Stations below to visit their websites.










Historic Data from Weather Underground
Select the location of interest below. Wairoa is the default. Please have patience, this Data is slow to load in.
Northern Hawkes Bay Historical Data
Daily Summary for February 14, 2017 Units:  English    Metric   Both
« Previous Day
Next Day »
Daily Weekly Monthly Yearly Custom
  High: Low: Average:
Temperature: 82.9 °F 68 °F 74.3 °F
Dew Point: 61 °F 53.4 °F 57.7 °F
Humidity: 71% 45% 57%
Wind Speed: 15.9mph 0mph 4.8mph
Wind Gust: 24.4mph - -
Wind- - WNW
Pressure: 29.8 in 29.6 in -
Precipitation: 0 in    
Historical Graphs
 
 
Tabular Data for February 14, 2017
Time Temperature Dew Point Pressure Wind Wind Speed Wind Gust Humidity Rainfall Rate (Hourly) solar
00:03 73.2 °F 55 °F 29.6 in NW 5.4 mph 7.6 mph 53% 0 in 0 W/m2
00:08 73.2 °F 55 °F 29.6 in NW 5.4 mph 6.9 mph 53% 0 in 0 W/m2
00:13 73.2 °F 55 °F 29.6 in WNW 4.5 mph 10.7 mph 53% 0 in 0 W/m2
00:18 73.2 °F 55 °F 29.6 in NW 11.4 mph 15.2 mph 53% 0 in 0 W/m2
00:23 73.6 °F 54.3 °F 29.6 in NW 3.8 mph 15.2 mph 51% 0 in 0 W/m2
00:28 73.6 °F 54.9 °F 29.6 in NW 4.5 mph 15.2 mph 52% 0 in 0 W/m2
00:33 73.6 °F 54.3 °F 29.6 in NW 3.8 mph 9.8 mph 51% 0 in 0 W/m2
00:38 73.4 °F 53.8 °F 29.6 in NW 6 mph 10.7 mph 50% 0 in 0 W/m2
00:43 73.4 °F 54.1 °F 29.6 in NW 5.4 mph 10.7 mph 51% 0 in 0 W/m2
00:48 73.2 °F 54 °F 29.6 in NW 3.8 mph 9.8 mph 51% 0 in 0 W/m2
00:53 72.9 °F 54.1 °F 29.6 in NW 3.8 mph 9.2 mph 52% 0 in 0 W/m2
00:58 72.7 °F 54.1 °F 29.6 in NW 3.1 mph 8.3 mph 52% 0 in 0 W/m2
01:03 72.7 °F 53.4 °F 29.6 in NW 5.4 mph 10.7 mph 51% 0 in 0 W/m2
01:08 72.7 °F 53.4 °F 29.6 in NW 8.3 mph 13.6 mph 51% 0 in 0 W/m2
01:13 73 °F 54 °F 29.6 in NW 6 mph 14.5 mph 51% 0 in 0 W/m2
01:18 72.9 °F 53.8 °F 29.6 in NW 2.2 mph 14.5 mph 51% 0 in 0 W/m2
01:23 72.7 °F 53.4 °F 29.6 in NNW 4.5 mph 11.4 mph 51% 0 in 0 W/m2
01:28 72.1 °F 54.7 °F 29.6 in NNW 2.2 mph 9.8 mph 54% 0 in 0 W/m2
01:34 71.6 °F 55 °F 29.6 in North 2.2 mph 6.9 mph 56% 0 in 0 W/m2
01:39 71.4 °F 55.9 °F 29.6 in North 2.2 mph 6 mph 58% 0 in 0 W/m2
01:44 70.9 °F 55.9 °F 29.6 in North 0.7 mph 5.4 mph 59% 0 in 0 W/m2
01:49 70.9 °F 55.9 °F 29.6 in North 1.6 mph 4.5 mph 59% 0 in 0 W/m2
01:54 70.5 °F 55.9 °F 29.6 in Calm   3.1 mph 60% 0 in 0 W/m2
01:59 70.5 °F 55.6 °F 29.6 in Calm   2.2 mph 59% 0 in 0 W/m2
02:04 70.5 °F 55 °F 29.6 in NW 2.2 mph 4.5 mph 58% 0 in 0 W/m2
02:09 70.5 °F 54.7 °F 29.6 in Calm   4.5 mph 57% 0 in 0 W/m2
02:14 70.9 °F 54.3 °F 29.6 in NNW 1.6 mph 4.5 mph 56% 0 in 0 W/m2
02:19 70.9 °F 54.3 °F 29.6 in NNW 0.7 mph 4.5 mph 56% 0 in 0 W/m2
02:24 70.9 °F 54.9 °F 29.6 in NW 3.8 mph 5.4 mph 57% 0 in 0 W/m2
02:42 70.5 °F 54.7 °F 29.6 in SW 2.2 mph 3.8 mph 57% 0 in 0 W/m2
02:47 70.5 °F 54.7 °F 29.6 in SW 3.1 mph 4.5 mph 57% 0 in 0 W/m2
02:52 70.5 °F 54.1 °F 29.6 in WSW 5.4 mph 7.6 mph 56% 0 in 0 W/m2
02:57 71.1 °F 54.7 °F 29.6 in WSW 3.1 mph 7.6 mph 56% 0 in 0 W/m2
03:02 71.2 °F 54.9 °F 29.6 in WNW 12.1 mph 13.6 mph 56% 0 in 0 W/m2
03:07 71.6 °F 54.7 °F 29.6 in NW 5.4 mph 15.2 mph 55% 0 in 0 W/m2
03:12 71.6 °F 55 °F 29.6 in Calm   15.2 mph 56% 0 in 0 W/m2
03:17 71.4 °F 55.4 °F 29.6 in NW 6 mph 9.2 mph 57% 0 in 0 W/m2
03:22 71.8 °F 55.8 °F 29.6 in NNW 3.8 mph 17.4 mph 57% 0 in 0 W/m2
03:27 71.6 °F 55.6 °F 29.6 in NW 4.5 mph 17.4 mph 57% 0 in 0 W/m2
03:32 71.6 °F 55.6 °F 29.6 in NW 2.2 mph 9.8 mph 57% 0 in 0 W/m2
03:37 71.6 °F 56.1 °F 29.6 in North 1.6 mph 9.8 mph 58% 0 in 0 W/m2
03:42 71.4 °F 56.5 °F 29.6 in North 0.7 mph 7.6 mph 59% 0 in 0 W/m2
03:47 71.2 °F 56.1 °F 29.6 in Calm   5.4 mph 59% 0 in 0 W/m2
03:52 70.5 °F 56.5 °F 29.6 in Calm   2.2 mph 61% 0 in 0 W/m2
03:57 70.5 °F 56.5 °F 29.6 in West 2.2 mph 5.4 mph 61% 0 in 0 W/m2
04:02 70.7 °F 56.1 °F 29.6 in West 2.2 mph 6 mph 60% 0 in 0 W/m2
04:08 70.5 °F 55.9 °F 29.6 in NW 6 mph 6.9 mph 60% 0 in 0 W/m2
04:13 70.7 °F 55.8 °F 29.6 in NW 2.2 mph 6.9 mph 59% 0 in 0 W/m2
04:18 70.5 °F 55.6 °F 29.6 in NW 2.2 mph 6.9 mph 59% 0 in 0 W/m2
04:23 70.5 °F 55.9 °F 29.6 in NW 2.2 mph 5.4 mph 60% 0 in 0 W/m2
04:28 70.3 °F 56.3 °F 29.6 in NW 1.6 mph 5.4 mph 61% 0 in 0 W/m2
04:33 70.3 °F 56.7 °F 29.6 in NNW 0.7 mph 5.4 mph 62% 0 in 0 W/m2
04:38 70.2 °F 56.7 °F 29.6 in Calm   3.8 mph 62% 0 in 0 W/m2
04:43 69.8 °F 56.1 °F 29.6 in Calm   2.2 mph 62% 0 in 0 W/m2
04:48 69.6 °F 56.8 °F 29.6 in Calm     64% 0 in 0 W/m2
04:53 69.3 °F 56.7 °F 29.6 in Calm     64% 0 in 0 W/m2
04:59 69.1 °F 57.4 °F 29.6 in Calm   2.2 mph 66% 0 in 0 W/m2
05:04 68.7 °F 56.8 °F 29.7 in Calm   2.2 mph 66% 0 in 0 W/m2
05:09 68.5 °F 56.8 °F 29.7 in Calm   3.1 mph 66% 0 in 0 W/m2
05:14 68.7 °F 56.8 °F 29.7 in WNW 3.8 mph 6 mph 66% 0 in 0 W/m2
05:19 69.6 °F 56.8 °F 29.7 in NW 0.7 mph 6 mph 64% 0 in 0 W/m2
05:24 70.2 °F 56.7 °F 29.7 in NW 8.3 mph 15.2 mph 62% 0 in 0 W/m2
05:29 70.7 °F 55.8 °F 29.7 in NW 5.4 mph 15.2 mph 59% 0 in 0 W/m2
05:34 71.2 °F 56.1 °F 29.7 in WNW 8.3 mph 19 mph 59% 0 in 0 W/m2
05:39 71.4 °F 56.5 °F 29.7 in NW 9.8 mph 19 mph 59% 0 in 0 W/m2
05:44 71.4 °F 56.5 °F 29.7 in NW 11.4 mph 19 mph 59% 0 in 0 W/m2
05:49 71.4 °F 56.5 °F 29.7 in NW 9.8 mph 19 mph 59% 0 in 0 W/m2
05:54 71.2 °F 56.1 °F 29.7 in NW 4.5 mph 19 mph 59% 0 in 0 W/m2
05:59 71.2 °F 56.1 °F 29.7 in NW 5.4 mph 14.5 mph 59% 0 in 0 W/m2
06:04 71.1 °F 55.9 °F 29.6 in NNW 6.9 mph 13.6 mph 59% 0 in 0 W/m2
06:09 71.1 °F 56.5 °F 29.6 in NW 3.1 mph 10.7 mph 60% 0 in 0 W/m2
06:14 70.7 °F 56.1 °F 29.6 in NW 2.2 mph 10.7 mph 60% 0 in 0 W/m2
06:20 70.5 °F 56.5 °F 29.6 in NNW 0.7 mph 6 mph 61% 0 in 0 W/m2
06:26 70.3 °F 56.7 °F 29.6 in Calm   4.5 mph 62% 0 in 0 W/m2
06:31 70.2 °F 56.7 °F 29.6 in Calm   2.2 mph 62% 0 in 0 W/m2
06:36 69.8 °F 56.7 °F 29.6 in Calm   2.2 mph 63% 0 in 0 W/m2
06:41 69.6 °F 56.8 °F 29.6 in NNE 3.8 mph 5.4 mph 64% 0 in 1 W/m2
06:46 69.6 °F 56.8 °F 29.6 in North 3.8 mph 5.4 mph 64% 0 in 2 W/m2
06:51 69.6 °F 56.8 °F 29.6 in NNW 1.6 mph 5.4 mph 64% 0 in 4 W/m2
06:56 69.6 °F 57.4 °F 29.7 in Calm   5.4 mph 65% 0 in 7 W/m2
07:01 69.3 °F 57 °F 29.7 in WSW 0.7 mph 2.2 mph 65% 0 in 12 W/m2
07:06 69.1 °F 56.8 °F 29.7 in Calm   2.2 mph 65% 0 in 18 W/m2
07:11 68.9 °F 57 °F 29.7 in Calm   1.6 mph 66% 0 in 27 W/m2
07:16 68.9 °F 57 °F 29.7 in Calm   2.2 mph 66% 0 in 31 W/m2
07:21 69.1 °F 57.4 °F 29.7 in North 0.7 mph 3.8 mph 66% 0 in 36 W/m2
07:26 69.1 °F 57.7 °F 29.7 in NNE 0.7 mph 3.8 mph 67% 0 in 47 W/m2
07:31 69.3 °F 57.9 °F 29.7 in North 3.1 mph 4.5 mph 67% 0 in 49 W/m2
07:32 69.3 °F 57.4 °F 29.7 in North 3.8 mph 9.2 mph 66% 0 in 48 W/m2
07:37 70.2 °F 57.4 °F 29.7 in Calm   9.2 mph 64% 0 in 42 W/m2
07:42 70.3 °F 57.6 °F 29.7 in North 0.7 mph 6 mph 64% 0 in 41 W/m2
07:47 70.3 °F 57.6 °F 29.7 in NW 3.1 mph 5.4 mph 64% 0 in 43 W/m2
07:52 70.5 °F 57.7 °F 29.7 in NNW 3.8 mph 5.4 mph 64% 0 in 43 W/m2
07:57 70.5 °F 57.7 °F 29.7 in NNW 2.2 mph 5.4 mph 64% 0 in 46 W/m2
08:02 70.5 °F 57.7 °F 29.7 in NNW 1.6 mph 5.4 mph 64% 0 in 58 W/m2
08:07 70.5 °F 57.7 °F 29.7 in NW 3.1 mph 6.9 mph 64% 0 in 79 W/m2
08:12 70.9 °F 58.1 °F 29.7 in NW 5.4 mph 6.9 mph 64% 0 in 96 W/m2
08:17 71.1 °F 57.9 °F 29.7 in NW 5.4 mph 9.2 mph 63% 0 in 101 W/m2
08:22 71.2 °F 57.6 °F 29.7 in NNW 5.4 mph 10.7 mph 62% 0 in 98 W/m2
08:27 71.4 °F 57.7 °F 29.7 in NNW 3.8 mph 10.7 mph 62% 0 in 107 W/m2
08:32 71.6 °F 57.6 °F 29.7 in NW 4.5 mph 10.7 mph 61% 0 in 123 W/m2
08:37 71.8 °F 57.6 °F 29.7 in NW 2.2 mph 9.2 mph 61% 0 in 141 W/m2
08:42 72 °F 57.7 °F 29.7 in NW 6 mph 9.8 mph 61% 0 in 150 W/m2
08:47 72.1 °F 57.9 °F 29.7 in NNW 3.8 mph 9.8 mph 61% 0 in 171 W/m2
08:52 72.5 °F 58.3 °F 29.7 in NNW 3.1 mph 9.8 mph 61% 0 in 196 W/m2
08:57 72.7 °F 57.9 °F 29.7 in NW 3.1 mph 9.2 mph 60% 0 in 209 W/m2
09:02 72.9 °F 58.6 °F 29.7 in NW 3.8 mph 9.2 mph 61% 0 in 223 W/m2
09:07 73.2 °F 59 °F 29.7 in NNW 3.8 mph 7.6 mph 61% 0 in 240 W/m2
09:12 73.4 °F 58.3 °F 29.7 in NNW 9.2 mph 12.1 mph 59% 0 in 234 W/m2
09:17 73.6 °F 57.9 °F 29.7 in NNW 6.9 mph 12.1 mph 58% 0 in 227 W/m2
09:22 73.6 °F 57.4 °F 29.7 in NW 8.3 mph 14.5 mph 57% 0 in 254 W/m2
09:28 74.1 °F 57.9 °F 29.7 in NW 6 mph 14.5 mph 57% 0 in 336 W/m2
09:33 73.9 °F 57.4 °F 29.7 in NNW 7.6 mph 13.6 mph 56% 0 in 222 W/m2
09:38 74.1 °F 58.5 °F 29.7 in NNW 4.5 mph 13.6 mph 58% 0 in 308 W/m2
09:43 74.8 °F 58.1 °F 29.7 in NNW 9.8 mph 13 mph 56% 0 in 274 W/m2
09:48 75 °F 57.7 °F 29.7 in NW 4.5 mph 13.6 mph 55% 0 in 300 W/m2
09:53 75.7 °F 57.9 °F 29.7 in NW 6 mph 13.6 mph 54% 0 in 326 W/m2
09:58 75.7 °F 57.9 °F 29.7 in NW 4.5 mph 12.1 mph 54% 0 in 337 W/m2
10:03 75.9 °F 58.1 °F 29.7 in NNW 5.4 mph 9.8 mph 54% 0 in 340 W/m2
10:08 75.6 °F 57.7 °F 29.7 in NW 6.9 mph 13 mph 54% 0 in 373 W/m2
10:13 75.9 °F 58.1 °F 29.7 in NW 3.8 mph 13 mph 54% 0 in 444 W/m2
10:19 76.6 °F 58.8 °F 29.7 in NNW 6 mph 10.7 mph 54% 0 in 586 W/m2
10:25 78.1 °F 58.5 °F 29.7 in NNW 6 mph 10.7 mph 51% 0 in 599 W/m2
10:30 78.6 °F 58.5 °F 29.7 in NNW 3.8 mph 9.2 mph 50% 0 in 751 W/m2
10:35 78.4 °F 57.7 °F 29.7 in NNW 9.2 mph 13.6 mph 49% 0 in 472 W/m2
10:40 77.5 °F 57.6 °F 29.7 in NW 6 mph 13.6 mph 50% 0 in 426 W/m2
10:45 77 °F 57 °F 29.7 in NW 9.8 mph 16.8 mph 50% 0 in 369 W/m2
10:50 77.2 °F 58.8 °F 29.7 in NW 9.2 mph 16.8 mph 53% 0 in 770 W/m2
10:55 78.1 °F 58.5 °F 29.7 in NW 3.1 mph 14.5 mph 51% 0 in 796 W/m2
11:00 79.9 °F 58.5 °F 29.7 in NW 4.5 mph 14.5 mph 48% 0 in 794 W/m2
11:05 79.5 °F 57.6 °F 29.7 in NW 9.2 mph 16.8 mph 47% 0 in 812 W/m2
11:10 79.9 °F 58.5 °F 29.7 in NW 9.2 mph 16.8 mph 48% 0 in 784 W/m2
11:15 80.1 °F 58.6 °F 29.7 in NW 9.2 mph 15.9 mph 48% 0 in 595 W/m2
11:20 79.9 °F 58.5 °F 29.7 in NW 9.2 mph 16.8 mph 48% 0 in 203 W/m2
11:26 80.1 °F 58.1 °F 29.7 in WNW 4.5 mph 16.8 mph 47% 0 in 881 W/m2
11:31 80.6 °F 57.9 °F 29.7 in West 4.5 mph 13.6 mph 46% 0 in 916 W/m2
11:36 80.8 °F 58.1 °F 29.7 in WNW 6.9 mph 13.6 mph 46% 0 in 937 W/m2
11:41 80.8 °F 58.1 °F 29.7 in WNW 7.6 mph 15.2 mph 46% 0 in 883 W/m2
11:46 80.6 °F 58.5 °F 29.7 in WNW 10.7 mph 15.9 mph 47% 0 in 861 W/m2
11:51 80.2 °F 58.8 °F 29.7 in WNW 9.2 mph 15.9 mph 48% 0 in 1020 W/m2
11:56 80.1 °F 58.1 °F 29.7 in WNW 9.8 mph 16.8 mph 47% 0 in 514 W/m2
12:01 79.9 °F 58.5 °F 29.7 in WNW 5.4 mph 16.8 mph 48% 0 in 1207 W/m2
12:06 80.8 °F 58.1 °F 29.7 in NW 6 mph 23.5 mph 46% 0 in 1059 W/m2
12:11 81.1 °F 58.5 °F 29.7 in NW 9.8 mph 23.5 mph 46% 0 in 599 W/m2
12:16 81.5 °F 58.8 °F 29.7 in NW 9.8 mph 15.9 mph 46% 0 in 998 W/m2
12:21 80.8 °F 57.6 °F 29.7 in NW 7.6 mph 18.3 mph 45% 0 in 1014 W/m2
12:26 81.1 °F 59 °F 29.7 in WNW 9.8 mph 18.3 mph 47% 0 in 1014 W/m2
12:31 81.5 °F 58.8 °F 29.7 in West 11.4 mph 17.4 mph 46% 0 in 1016 W/m2
12:36 81.3 °F 58.6 °F 29.7 in WNW 7.6 mph 17.4 mph 46% 0 in 1082 W/m2
12:41 81.3 °F 59.2 °F 29.7 in NW 9.2 mph 18.3 mph 47% 0 in 1071 W/m2
12:46 81.5 °F 59.4 °F 29.7 in NW 9.8 mph 18.3 mph 47% 0 in 1026 W/m2
12:51 81.7 °F 58.8 °F 29.7 in WNW 6.9 mph 18.3 mph 46% 0 in 1158 W/m2
12:57 82 °F 58.6 °F 29.7 in WNW 4.5 mph 15.9 mph 45% 0 in 1164 W/m2
13:02 82 °F 58.6 °F 29.7 in West 8.3 mph 15.9 mph 45% 0 in 1254 W/m2
13:07 82 °F 58.6 °F 29.7 in West 13 mph 17.4 mph 45% 0 in 857 W/m2
13:12 81.3 °F 58.6 °F 29.7 in WNW 7.6 mph 19.7 mph 46% 0 in 1113 W/m2
13:17 82 °F 59.4 °F 29.7 in WNW 6 mph 19.7 mph 46% 0 in 1073 W/m2
13:22 82.2 °F 58.8 °F 29.7 in WNW 11.4 mph 19.7 mph 45% 0 in 507 W/m2
13:27 81 °F 58.3 °F 29.7 in NW 12.1 mph 20.6 mph 46% 0 in 502 W/m2
13:33 80.2 °F 58.3 °F 29.7 in NW 11.4 mph 19 mph 47% 0 in 462 W/m2
13:38 79.9 °F 58.5 °F 29.7 in WNW 15.9 mph 24.4 mph 48% 0 in 500 W/m2
13:43 79.2 °F 58.5 °F 29.7 in NW 13 mph 24.4 mph 49% 0 in 322 W/m2
13:44 79.2 °F 58.5 °F 29.7 in NW 9.8 mph 24.4 mph 49% 0 in 798 W/m2
13:49 79.5 °F 58.3 °F 29.7 in NNW 9.2 mph 19.7 mph 48% 0 in 865 W/m2
13:54 79.5 °F 58.3 °F 29.7 in NNW 9.8 mph 19.7 mph 48% 0 in 1034 W/m2
13:59 80.4 °F 59 °F 29.7 in NW 11.4 mph 19 mph 48% 0 in 942 W/m2
14:05 80.8 °F 58.6 °F 29.7 in NW 11.4 mph 18.3 mph 47% 0 in 989 W/m2
14:10 81.1 °F 58.5 °F 29.7 in NW 6 mph 18.3 mph 46% 0 in 970 W/m2
14:15 81.7 °F 58.8 °F 29.7 in NW 9.2 mph 15.2 mph 46% 0 in 1066 W/m2
14:20 82.4 °F 59.5 °F 29.7 in NW 4.5 mph 12.1 mph 46% 0 in 417 W/m2
14:25 81.5 °F 58.8 °F 29.7 in NNW 8.3 mph 12.1 mph 46% 0 in 409 W/m2
14:30 80.6 °F 58.5 °F 29.7 in NW 7.6 mph 13 mph 47% 0 in 426 W/m2
14:36 80.8 °F 58.6 °F 29.7 in NW 3.1 mph 13 mph 47% 0 in 564 W/m2
14:41 81.9 °F 59.7 °F 29.7 in NW 6.9 mph 12.1 mph 47% 0 in 663 W/m2
14:46 82.8 °F 59.9 °F 29.7 in WNW 7.6 mph 13 mph 46% 0 in 714 W/m2
14:52 82.9 °F 60.1 °F 29.7 in NW 6.9 mph 15.9 mph 46% 0 in 389 W/m2
14:57 82 °F 58.6 °F 29.7 in NW 6 mph 15.9 mph 45% 0 in 493 W/m2
15:02 82.2 °F 59.4 °F 29.7 in NNW 9.2 mph 13 mph 46% 0 in 474 W/m2
15:07 82.8 °F 59.9 °F 29.7 in WNW 9.8 mph 15.2 mph 46% 0 in 849 W/m2
15:12 81.1 °F 57.7 °F 29.7 in West 5.4 mph 15.9 mph 45% 0 in 244 W/m2
15:18 78.6 °F 60.1 °F 29.7 in SW 6.9 mph 15.9 mph 53% 0 in 231 W/m2
15:23 77.9 °F 59.4 °F 29.7 in SW 7.6 mph 10.7 mph 53% 0 in 250 W/m2
15:28 77.5 °F 59.2 °F 29.7 in SW 7.6 mph 11.4 mph 53% 0 in 334 W/m2
15:33 77.7 °F 59.4 °F 29.7 in SSW 5.4 mph 11.4 mph 53% 0 in 245 W/m2
15:38 77.4 °F 61 °F 29.7 in SSW 4.5 mph 10.7 mph 57% 0 in 196 W/m2
15:44 76.8 °F 60.4 °F 29.7 in South 3.8 mph 10.7 mph 57% 0 in 222 W/m2
15:49 76.8 °F 60.4 °F 29.7 in South 2.2 mph 6.9 mph 57% 0 in 247 W/m2
15:55 77 °F 60.1 °F 29.7 in South 3.8 mph 6.9 mph 56% 0 in 255 W/m2
16:00 77 °F 58.6 °F 29.7 in South 6 mph 8.3 mph 53% 0 in 209 W/m2
16:06 76.6 °F 58.8 °F 29.7 in SW 3.8 mph 11.4 mph 54% 0 in 190 W/m2
16:11 77 °F 59.2 °F 29.7 in SW 3.1 mph 11.4 mph 54% 0 in 223 W/m2
16:16 77 °F 59.5 °F 29.7 in SW 6 mph 9.8 mph 55% 0 in 235 W/m2
16:36 78.6 °F 59 °F 29.7 in West 2.2 mph 5.4 mph 51% 0 in 200 W/m2
16:41 78.3 °F 59.7 °F 29.7 in West 5.4 mph 10.7 mph 53% 0 in 188 W/m2
16:46 78.1 °F 59.5 °F 29.7 in West 3.1 mph 10.7 mph 53% 0 in 162 W/m2
16:51 77.4 °F 59.5 °F 29.7 in NW 4.5 mph 11.4 mph 54% 0 in 141 W/m2
16:56 77 °F 59.5 °F 29.7 in NW 5.4 mph 11.4 mph 55% 0 in 168 W/m2
17:01 77 °F 59.5 °F 29.7 in West 5.4 mph 14.5 mph 55% 0 in 174 W/m2
17:06 76.6 °F 59.7 °F 29.7 in WNW 2.2 mph 14.5 mph 56% 0 in 185 W/m2
17:11 77 °F 59.5 °F 29.7 in WNW 3.1 mph 9.8 mph 55% 0 in 193 W/m2
17:16 77 °F 59.5 °F 29.7 in West 5.4 mph 9.8 mph 55% 0 in 156 W/m2
17:21 76.6 °F 59.7 °F 29.7 in NW 6 mph 11.4 mph 56% 0 in 113 W/m2
17:38 75.9 °F 59.2 °F 29.7 in NW 9.2 mph 12.1 mph 56% 0 in 118 W/m2
17:43 75.9 °F 59.2 °F 29.7 in NNW 6 mph 11.4 mph 56% 0 in 137 W/m2
17:48 76.1 °F 59.4 °F 29.7 in NNW 6 mph 13 mph 56% 0 in 149 W/m2
17:53 76.3 °F 59.5 °F 29.7 in NW 6.9 mph 13 mph 56% 0 in 162 W/m2
17:58 76.5 °F 59.5 °F 29.7 in NW 4.5 mph 10.7 mph 56% 0 in 199 W/m2
18:03 76.8 °F 60.1 °F 29.7 in NW 8.3 mph 13 mph 56% 0 in 175 W/m2
18:08 76.5 °F 59.2 °F 29.7 in NNW 6 mph 15.9 mph 55% 0 in 125 W/m2
18:13 76.3 °F 59.5 °F 29.8 in NW 6.9 mph 15.9 mph 56% 0 in 123 W/m2
18:18 76.1 °F 59.4 °F 29.8 in NW 5.4 mph 12.1 mph 56% 0 in 101 W/m2
18:23 75.9 °F 59.2 °F 29.8 in NNW 6.9 mph 13 mph 56% 0 in 92 W/m2
18:28 75.9 °F 58.6 °F 29.8 in NW 7.6 mph 13 mph 55% 0 in 89 W/m2
18:33 75.9 °F 59.2 °F 29.8 in NW 4.5 mph 12.1 mph 56% 0 in 77 W/m2
18:38 75.9 °F 59.2 °F 29.8 in NNW 6.9 mph 13 mph 56% 0 in 86 W/m2
18:43 75.9 °F 59.2 °F 29.8 in NNW 4.5 mph 13 mph 56% 0 in 83 W/m2
18:48 75.9 °F 59.2 °F 29.8 in NNW 5.4 mph 12.1 mph 56% 0 in 89 W/m2
18:53 75.9 °F 58.6 °F 29.8 in NW 3.8 mph 12.1 mph 55% 0 in 84 W/m2
18:58 75.9 °F 58.6 °F 29.8 in NW 4.5 mph 12.1 mph 55% 0 in 75 W/m2
19:03 75.9 °F 58.6 °F 29.7 in NW 8.3 mph 11.4 mph 55% 0 in 69 W/m2
19:08 75.6 °F 58.8 °F 29.7 in NNW 5.4 mph 11.4 mph 56% 0 in 54 W/m2
19:13 75.4 °F 59.5 °F 29.8 in NNW 6.9 mph 11.4 mph 58% 0 in 46 W/m2
19:18 75 °F 59.7 °F 29.8 in NW 6 mph 10.7 mph 59% 0 in 33 W/m2
19:23 74.8 °F 60.1 °F 29.7 in NNW 8.3 mph 13.6 mph 60% 0 in 25 W/m2
19:28 74.7 °F 59.4 °F 29.7 in North 4.5 mph 13.6 mph 59% 0 in 29 W/m2
19:33 74.7 °F 59.9 °F 29.8 in NNW 3.8 mph 13 mph 60% 0 in 23 W/m2
19:38 74.3 °F 59.5 °F 29.8 in NNW 4.5 mph 13 mph 60% 0 in 20 W/m2
19:43 74.3 °F 59.5 °F 29.8 in NNW 3.8 mph 10.7 mph 60% 0 in 16 W/m2
19:48 73.9 °F 59.2 °F 29.8 in NW 3.8 mph 10.7 mph 60% 0 in 12 W/m2
19:53 73.8 °F 59 °F 29.8 in NNW 5.4 mph 11.4 mph 60% 0 in 8 W/m2
19:58 73.6 °F 59.4 °F 29.8 in NNW 6 mph 11.4 mph 61% 0 in 4 W/m2
20:03 73.4 °F 58.6 °F 29.8 in NW 5.4 mph 10.7 mph 60% 0 in 2 W/m2
20:08 73.2 °F 59 °F 29.8 in NW 3.8 mph 10.7 mph 61% 0 in 1 W/m2
20:13 73 °F 59.4 °F 29.8 in NW 5.4 mph 10.7 mph 62% 0 in 0 W/m2
20:19 73 °F 59.4 °F 29.8 in NW 6.9 mph 11.4 mph 62% 0 in 0 W/m2
20:24 73 °F 58.8 °F 29.8 in NW 7.6 mph 11.4 mph 61% 0 in 0 W/m2
20:29 72.9 °F 58.6 °F 29.8 in NNW 4.5 mph 10.7 mph 61% 0 in 0 W/m2
20:34 72.9 °F 59.2 °F 29.8 in NW 2.2 mph 9.8 mph 62% 0 in 0 W/m2
20:39 72.7 °F 58.5 °F 29.8 in NW 3.8 mph 9.2 mph 61% 0 in 0 W/m2
20:44 72.5 °F 58.8 °F 29.8 in NNW 4.5 mph 9.2 mph 62% 0 in 0 W/m2
20:49 72.5 °F 58.8 °F 29.8 in NNW 3.8 mph 9.2 mph 62% 0 in 0 W/m2
20:54 72.5 °F 58.3 °F 29.8 in NNW 5.4 mph 9.8 mph 61% 0 in 0 W/m2
20:59 72.3 °F 58.1 °F 29.8 in NNW 5.4 mph 9.8 mph 61% 0 in 0 W/m2
21:04 72.3 °F 58.1 °F 29.8 in NNW 3.8 mph 8.3 mph 61% 0 in 0 W/m2
21:09 72.3 °F 58.1 °F 29.8 in NW 3.8 mph 9.2 mph 61% 0 in 0 W/m2
21:14 72.3 °F 58.1 °F 29.8 in NNW 5.4 mph 9.2 mph 61% 0 in 0 W/m2
21:19 72.3 °F 57.7 °F 29.8 in NNW 4.5 mph 9.2 mph 60% 0 in 0 W/m2
21:24 72.3 °F 57.7 °F 29.8 in NNW 5.4 mph 9.2 mph 60% 0 in 0 W/m2
21:29 72.1 °F 57.6 °F 29.8 in NNW 5.4 mph 9.2 mph 60% 0 in 0 W/m2
21:35 72.1 °F 57.6 °F 29.8 in North 6 mph 9.2 mph 60% 0 in 0 W/m2
21:40 72.1 °F 57.6 °F 29.8 in NNW 6 mph 9.8 mph 60% 0 in 0 W/m2
21:45 72.1 °F 57.6 °F 29.8 in NW 4.5 mph 9.8 mph 60% 0 in 0 W/m2
21:50 72.1 °F 57.9 °F 29.8 in NW 4.5 mph 8.3 mph 61% 0 in 0 W/m2
21:55 72 °F 57.7 °F 29.8 in NNW 5.4 mph 9.2 mph 61% 0 in 0 W/m2
22:00 72 °F 57.7 °F 29.8 in NNW 5.4 mph 9.2 mph 61% 0 in 0 W/m2
22:05 71.8 °F 58.5 °F 29.8 in North 3.8 mph 8.3 mph 63% 0 in 0 W/m2
22:11 71.6 °F 58.8 °F 29.8 in North 4.5 mph 8.3 mph 64% 0 in 0 W/m2
22:16 71.4 °F 59.2 °F 29.8 in North 6 mph 10.7 mph 65% 0 in 0 W/m2
22:21 71.2 °F 59.4 °F 29.8 in North 2.2 mph 10.7 mph 66% 0 in 0 W/m2
22:26 71.1 °F 59.2 °F 29.8 in NNW 4.5 mph 10.7 mph 66% 0 in 0 W/m2
22:31 70.9 °F 59 °F 29.8 in North 3.1 mph 8.3 mph 66% 0 in 0 W/m2
22:36 70.5 °F 58.6 °F 29.8 in North 3.1 mph 6.9 mph 66% 0 in 0 W/m2
22:41 70.5 °F 58.6 °F 29.8 in NNW 2.2 mph 6.9 mph 66% 0 in 0 W/m2
22:46 70.5 °F 58.6 °F 29.8 in NNW 3.8 mph 6.9 mph 66% 0 in 0 W/m2
22:51 70.5 °F 58.6 °F 29.8 in NNW 1.6 mph 6.9 mph 66% 0 in 0 W/m2
22:56 70.3 °F 58.5 °F 29.8 in NNW 3.1 mph 6 mph 66% 0 in 0 W/m2
23:01 70.3 °F 58.5 °F 29.8 in NNW 0.7 mph 6 mph 66% 0 in 0 W/m2
23:06 70 °F 58.1 °F 29.8 in Calm   3.8 mph 66% 0 in 0 W/m2
23:11 69.8 °F 57.9 °F 29.8 in NNW 1.6 mph 3.8 mph 66% 0 in 0 W/m2
23:16 69.6 °F 58.3 °F 29.8 in NNW 1.6 mph 3.8 mph 67% 0 in 0 W/m2
23:21 69.6 °F 58.3 °F 29.8 in NNW 1.6 mph 3.1 mph 67% 0 in 0 W/m2
23:26 69.4 °F 57.9 °F 29.8 in NW 3.1 mph 3.8 mph 67% 0 in 0 W/m2
23:31 69.4 °F 57.9 °F 29.8 in NW 0.7 mph 3.8 mph 67% 0 in 0 W/m2
23:36 69.1 °F 58.1 °F 29.8 in Calm   3.8 mph 68% 0 in 0 W/m2
23:41 68.7 °F 58.3 °F 29.8 in WSW 1.6 mph 2.2 mph 69% 0 in 0 W/m2
23:46 68.5 °F 57.9 °F 29.8 in Calm   3.1 mph 69% 0 in 0 W/m2
23:51 68.4 °F 58.3 °F 29.8 in Calm   3.1 mph 70% 0 in 0 W/m2
23:56 68 °F 58.3 °F 29.8 in Calm   1.6 mph 71% 0 in 0 W/m2
Northern Hawkes Bay. New Zealand Historic Data
Compliments of Weather Underground - 2.25 mb